createdAt,value
2023-04-07T00:00:06.320Z,3.35
2023-04-07T00:05:07.989Z,4.38
2023-04-07T00:10:09.845Z,3.25
2023-04-07T00:15:11.656Z,4.68
2023-04-07T00:20:13.132Z,3.90
2023-04-07T00:25:14.881Z,4.28
2023-04-07T00:30:16.452Z,4.47
2023-04-07T00:35:18.057Z,4.03
2023-04-07T00:40:19.653Z,3.60
2023-04-07T00:45:21.383Z,3.97
2023-04-07T00:50:22.884Z,3.55
2023-04-07T00:55:24.408Z,3.47
2023-04-07T01:00:27.542Z,3.13
2023-04-07T01:05:39.276Z,3.80
2023-04-07T01:10:46.618Z,3.97
2023-04-07T01:15:49.757Z,4.00
2023-04-07T01:20:52.718Z,4.47
2023-04-07T01:26:01.032Z,3.70
2023-04-07T01:31:03.216Z,3.80
2023-04-07T01:36:05.739Z,3.72
2023-04-07T01:41:07.589Z,4.43
2023-04-07T01:46:09.318Z,4.28
2023-04-07T01:51:12.099Z,4.80
2023-04-07T01:56:13.782Z,5.22
2023-04-07T02:01:15.473Z,5.95
2023-04-07T02:06:19.629Z,4.75
2023-04-07T02:11:22.419Z,4.43
2023-04-07T02:16:24.382Z,4.13
2023-04-07T02:21:27.279Z,4.63
2023-04-07T02:26:34.274Z,4.03
2023-04-07T02:31:36.947Z,3.40
2023-04-07T02:36:39.544Z,3.38
2023-04-07T02:41:41.448Z,3.08
2023-04-07T02:46:43.158Z,3.13
2023-04-07T02:51:47.100Z,4.05
2023-04-07T02:56:49.043Z,3.08
2023-04-07T03:01:51.044Z,3.35
2023-04-07T03:06:52.725Z,3.35
2023-04-07T03:11:54.481Z,4.15
2023-04-07T03:16:56.617Z,3.88
2023-04-07T03:21:58.135Z,3.10
2023-04-07T03:26:59.723Z,3.90
2023-04-07T03:32:01.366Z,3.60
2023-04-07T03:37:03.051Z,3.83
2023-04-07T03:42:04.675Z,3.33
2023-04-07T03:47:06.190Z,3.50
2023-04-07T03:52:07.714Z,3.60
2023-04-07T03:57:09.529Z,3.33
2023-04-07T04:02:11.512Z,3.50
2023-04-07T04:07:13.179Z,3.33
2023-04-07T04:12:14.779Z,3.30
2023-04-07T04:17:16.444Z,4.38
2023-04-07T04:22:18.388Z,3.38
2023-04-07T04:27:20.231Z,3.30
2023-04-07T04:32:21.727Z,3.38
2023-04-07T04:37:23.196Z,3.10
2023-04-07T04:42:26.379Z,3.75
2023-04-07T04:47:28.179Z,3.67
2023-04-07T04:52:30.158Z,3.53
2023-04-07T04:57:31.780Z,3.78
2023-04-07T05:02:33.675Z,3.60
2023-04-07T05:07:35.859Z,3.80
2023-04-07T05:12:37.467Z,3.40
2023-04-07T05:17:39.075Z,3.92
2023-04-07T05:22:41.409Z,3.95
2023-04-07T05:27:43.022Z,3.95
2023-04-07T05:32:44.631Z,4.00
2023-04-07T05:37:46.357Z,4.70
2023-04-07T05:42:47.876Z,4.30
2023-04-07T05:47:50.750Z,4.57
2023-04-07T05:52:52.210Z,4.35
2023-04-07T05:57:53.976Z,4.75
2023-04-07T06:02:57.340Z,3.67
2023-04-07T06:07:59.122Z,4.38
2023-04-07T06:13:01.158Z,4.57
2023-04-07T06:18:02.781Z,4.28
2023-04-07T06:23:04.632Z,4.70
2023-04-07T06:28:06.372Z,4.35
2023-04-07T06:33:07.864Z,3.78
2023-04-07T06:38:11.568Z,3.65
2023-04-07T06:43:13.134Z,4.07
2023-04-07T06:48:14.617Z,4.53
2023-04-07T06:53:16.464Z,4.55
2023-04-07T06:58:18.201Z,4.47
2023-04-07T07:03:20.162Z,4.53
2023-04-07T07:08:22.716Z,5.25
2023-04-07T07:13:25.486Z,4.97
2023-04-07T07:18:27.213Z,5.38
2023-04-07T07:23:28.860Z,4.32
2023-04-07T07:28:30.576Z,5.20
2023-04-07T07:33:32.081Z,4.50
2023-04-07T07:38:36.015Z,4.88
2023-04-07T07:43:38.517Z,4.53
2023-04-07T07:48:40.747Z,4.20
2023-04-07T07:53:42.742Z,4.32
2023-04-07T07:58:44.653Z,4.80
2023-04-07T08:03:46.521Z,4.93
2023-04-07T08:08:48.700Z,4.47
2023-04-07T08:13:50.575Z,4.28
2023-04-07T08:18:52.473Z,5.70
2023-04-07T08:23:54.662Z,4.15
2023-04-07T08:28:58.693Z,4.50
2023-04-07T08:34:00.452Z,5.47
2023-04-07T08:39:02.397Z,4.93
2023-04-07T08:44:04.344Z,4.80
2023-04-07T08:49:09.691Z,4.97
2023-04-07T08:54:12.644Z,4.55
2023-04-07T08:59:15.391Z,5.30
2023-04-07T09:04:16.958Z,6.05
2023-04-07T09:09:18.781Z,5.18
2023-04-07T09:14:22.928Z,4.95
2023-04-07T09:19:24.948Z,5.07
2023-04-07T09:24:27.610Z,5.45
2023-04-07T09:29:29.247Z,5.07
2023-04-07T09:34:32.712Z,6.07
2023-04-07T09:39:34.958Z,5.47
2023-04-07T09:44:39.740Z,4.82
2023-04-07T09:49:54.576Z,5.05
2023-04-07T09:54:56.893Z,5.38
2023-04-07T09:59:59.164Z,5.40
2023-04-07T10:05:01.162Z,4.70
2023-04-07T10:10:05.908Z,5.32
2023-04-07T10:15:07.720Z,5.35
2023-04-07T10:20:10.706Z,5.55
2023-04-07T10:25:13.977Z,6.07
2023-04-07T10:30:17.122Z,4.78
2023-04-07T10:35:18.870Z,5.38
2023-04-07T10:40:27.019Z,6.57
2023-04-07T10:45:47.219Z,5.75
2023-04-07T10:51:15.913Z,5.88
2023-04-07T10:56:17.532Z,5.78
2023-04-07T11:01:19.895Z,5.38
2023-04-07T11:06:21.657Z,6.40
2023-04-07T11:11:55.959Z,5.97
2023-04-07T11:16:58.036Z,6.05
2023-04-07T11:22:28.718Z,5.60
2023-04-07T11:27:31.914Z,6.30
2023-04-07T11:32:33.467Z,5.50
2023-04-07T11:37:34.968Z,6.00
2023-04-07T11:42:37.242Z,5.82
2023-04-07T11:47:39.703Z,6.10
2023-04-07T11:52:45.010Z,6.85
2023-04-07T11:57:46.627Z,6.53
2023-04-07T12:02:48.460Z,6.78
2023-04-07T12:07:54.270Z,7.93
2023-04-07T12:12:57.563Z,7.53
2023-04-07T12:18:01.121Z,5.97
2023-04-07T12:23:02.831Z,6.97
2023-04-07T12:28:04.403Z,6.53
2023-04-07T12:33:06.452Z,6.30
2023-04-07T12:38:08.525Z,7.30
2023-04-07T12:43:10.182Z,6.43
2023-04-07T12:48:11.763Z,6.85
2023-04-07T12:53:13.564Z,5.80
2023-04-07T12:58:15.100Z,6.80
2023-04-07T13:03:17.054Z,5.70
2023-04-07T13:08:18.693Z,6.30
2023-04-07T13:13:20.376Z,7.32
2023-04-07T13:18:21.927Z,5.95
2023-04-07T13:23:23.418Z,6.78
2023-04-07T13:28:25.005Z,7.07
2023-04-07T13:33:29.311Z,5.95
2023-04-07T13:38:31.534Z,6.80
2023-04-07T13:43:33.326Z,6.65
2023-04-07T13:48:34.864Z,6.40
2023-04-07T13:53:36.446Z,6.32
2023-04-07T13:58:37.969Z,6.00
2023-04-07T14:03:39.680Z,7.63
2023-04-07T14:08:41.219Z,7.00
2023-04-07T14:13:42.851Z,7.00
2023-04-07T14:18:45.023Z,6.50
2023-04-07T14:23:47.631Z,7.00
2023-04-07T14:28:49.144Z,8.18
2023-04-07T14:33:51.163Z,7.68
2023-04-07T14:38:54.328Z,8.15
2023-04-07T14:43:56.741Z,8.93
2023-04-07T14:48:58.823Z,9.05
2023-04-07T14:54:00.489Z,9.15
2023-04-07T14:59:02.047Z,8.40
2023-04-07T15:04:04.135Z,7.82
2023-04-07T15:09:05.728Z,8.30
2023-04-07T15:14:07.293Z,8.32
2023-04-07T15:19:08.780Z,8.68
2023-04-07T15:24:10.413Z,9.18
2023-04-07T15:29:11.881Z,8.38
2023-04-07T15:34:16.365Z,7.65
2023-04-07T15:39:18.478Z,8.23
2023-04-07T15:44:20.269Z,8.98
2023-04-07T15:49:24.923Z,7.85
2023-04-07T15:54:27.779Z,7.07
2023-04-07T15:59:31.187Z,7.60
2023-04-07T16:04:32.977Z,7.03
2023-04-07T16:09:34.870Z,7.72
2023-04-07T16:14:37.018Z,6.38
2023-04-07T16:19:38.558Z,7.38
2023-04-07T16:24:40.043Z,7.20
2023-04-07T16:29:41.684Z,8.18
2023-04-07T16:34:43.289Z,8.82
2023-04-07T16:39:44.801Z,7.68
2023-04-07T16:44:46.393Z,7.90
2023-04-07T16:49:48.153Z,7.03
2023-04-07T16:54:50.192Z,7.57
2023-04-07T16:59:51.796Z,6.93
2023-04-07T17:04:53.842Z,6.78
2023-04-07T17:09:55.514Z,7.03
2023-04-07T17:14:57.075Z,6.38
2023-04-07T17:19:59.846Z,6.75
2023-04-07T17:25:01.355Z,6.63
2023-04-07T17:30:04.078Z,6.97
2023-04-07T17:35:05.853Z,7.18
2023-04-07T17:40:07.680Z,6.53
2023-04-07T17:45:09.537Z,7.07
2023-04-07T17:50:11.175Z,6.43
2023-04-07T17:55:12.756Z,7.18
2023-04-07T18:00:14.314Z,9.75
2023-04-07T18:05:16.883Z,12.32
2023-04-07T18:10:18.786Z,8.68
2023-04-07T18:15:21.112Z,7.70
2023-04-07T18:20:22.618Z,7.43
2023-04-07T18:25:24.354Z,8.35
2023-04-07T18:30:26.014Z,9.38
2023-04-07T18:35:28.628Z,9.20
2023-04-07T18:40:32.805Z,8.80
2023-04-07T18:45:36.986Z,8.13
2023-04-07T18:50:38.718Z,8.57
2023-04-07T18:55:40.450Z,8.38
2023-04-07T19:00:42.291Z,7.45
2023-04-07T19:05:47.293Z,7.78
2023-04-07T19:10:50.945Z,8.23
2023-04-07T19:15:53.149Z,8.63
2023-04-07T19:20:54.958Z,9.10
2023-04-07T19:25:56.581Z,8.57
2023-04-07T19:30:58.247Z,8.48
2023-04-07T19:35:59.754Z,8.85
2023-04-07T19:41:02.544Z,8.50
2023-04-07T19:46:04.959Z,9.77
2023-04-07T19:51:07.543Z,10.65
2023-04-07T19:56:09.389Z,10.07
2023-04-07T20:01:18.012Z,10.30
2023-04-07T20:06:20.958Z,11.38
2023-04-07T20:11:23.632Z,12.07
2023-04-07T20:16:25.284Z,11.15
2023-04-07T20:21:27.427Z,10.23
2023-04-07T20:26:28.947Z,10.38
2023-04-07T20:31:30.691Z,10.32
2023-04-07T20:36:32.168Z,10.27
2023-04-07T20:41:33.705Z,10.55
2023-04-07T20:46:35.300Z,11.10
2023-04-07T20:51:38.433Z,10.15
2023-04-07T20:56:40.067Z,9.40
2023-04-07T21:01:41.775Z,10.02
2023-04-07T21:06:43.794Z,9.65
2023-04-07T21:11:45.601Z,9.25
2023-04-07T21:16:47.031Z,9.02
2023-04-07T21:21:48.512Z,8.18
2023-04-07T21:26:50.007Z,8.93
2023-04-07T21:31:51.575Z,8.40
2023-04-07T21:36:53.464Z,8.50
2023-04-07T21:41:55.020Z,9.20
2023-04-07T21:46:56.600Z,8.10
2023-04-07T21:51:59.008Z,8.50
2023-04-07T21:57:01.096Z,8.75
2023-04-07T22:02:03.067Z,8.60
2023-04-07T22:07:04.645Z,8.43
2023-04-07T22:12:06.202Z,8.75
2023-04-07T22:17:07.685Z,9.02
2023-04-07T22:22:12.493Z,8.95
2023-04-07T22:27:13.976Z,9.38
2023-04-07T22:32:15.608Z,9.48
2023-04-07T22:37:17.184Z,9.50
2023-04-07T22:42:18.713Z,9.63
2023-04-07T22:47:20.792Z,9.60
2023-04-07T22:52:22.295Z,9.48
2023-04-07T22:57:24.550Z,9.38
2023-04-07T23:02:26.486Z,8.82
2023-04-07T23:07:28.046Z,9.27
2023-04-07T23:12:29.701Z,8.98
2023-04-07T23:17:31.634Z,8.95
2023-04-07T23:22:33.280Z,9.38
2023-04-07T23:27:34.957Z,8.02
2023-04-07T23:32:38.005Z,8.52
2023-04-07T23:37:39.630Z,8.73
2023-04-07T23:42:41.248Z,9.68
2023-04-07T23:47:42.974Z,8.57
2023-04-07T23:52:44.992Z,8.70
2023-04-07T23:57:46.597Z,9.23
